createdAt,value
2017-08-26T00:02:18.746Z,17.40
2017-08-26T00:04:46.499Z,17.40
2017-08-26T00:07:14.165Z,17.40
2017-08-26T00:09:41.824Z,17.50
2017-08-26T00:12:09.464Z,17.60
2017-08-26T00:14:37.143Z,17.70
2017-08-26T00:17:04.802Z,17.80
2017-08-26T00:19:32.429Z,17.90
2017-08-26T00:22:00.053Z,17.80
2017-08-26T01:46:24.885Z,17.60
2017-08-26T01:48:52.548Z,16.60
2017-08-26T01:51:20.214Z,16.70
2017-08-26T01:53:47.912Z,16.60
2017-08-26T01:56:15.577Z,16.60
2017-08-26T01:58:43.307Z,16.60
2017-08-26T02:01:10.989Z,16.60
2017-08-26T02:03:38.653Z,16.50
2017-08-26T02:06:06.485Z,16.60
2017-08-26T02:08:34.192Z,16.70
2017-08-26T02:11:01.843Z,16.70
2017-08-26T02:13:29.496Z,16.70
2017-08-26T02:15:57.287Z,16.60
2017-08-26T02:18:24.941Z,16.60
2017-08-26T02:20:52.606Z,16.40
2017-08-26T02:23:20.297Z,16.50
2017-08-26T02:25:47.948Z,16.40
2017-08-26T02:28:15.670Z,16.40
2017-08-26T02:30:43.478Z,16.30
2017-08-26T02:33:11.133Z,16.30
2017-08-26T02:35:38.796Z,16.20
2017-08-26T02:38:06.650Z,16.20
2017-08-26T02:43:08.260Z,16.10
2017-08-26T02:45:35.934Z,16.20
2017-08-26T02:48:03.587Z,16.10
2017-08-26T02:50:31.279Z,16.20
2017-08-26T02:52:58.934Z,16.10
2017-08-26T02:55:26.668Z,16.10
2017-08-26T02:57:54.382Z,16.00
2017-08-26T03:00:22.051Z,16.00
2017-08-26T03:02:49.692Z,16.10
2017-08-26T03:05:17.417Z,16.10
2017-08-26T03:07:45.055Z,16.30
2017-08-26T03:10:12.695Z,16.30
2017-08-26T03:12:40.385Z,16.10
2017-08-26T03:15:08.046Z,16.00
2017-08-26T03:17:35.736Z,15.90
2017-08-26T03:20:03.423Z,15.80
2017-08-26T03:22:31.091Z,15.80
2017-08-26T03:24:58.745Z,15.80
2017-08-26T03:27:26.651Z,15.70
2017-08-26T03:29:54.321Z,15.70
2017-08-26T03:32:21.974Z,15.80
2017-08-26T03:34:49.654Z,15.80
2017-08-26T03:37:17.299Z,15.70
2017-08-26T03:39:44.955Z,15.80
2017-08-26T03:42:12.628Z,15.70
2017-08-26T03:44:40.272Z,15.60
2017-08-26T03:47:07.927Z,15.70
2017-08-26T03:49:35.661Z,15.70
2017-08-26T03:52:03.315Z,15.80
2017-08-26T03:54:30.982Z,15.80
2017-08-26T03:56:58.668Z,15.70
2017-08-26T03:59:26.556Z,15.60
2017-08-26T04:01:54.212Z,15.60
2017-08-26T04:04:21.904Z,15.50
2017-08-26T04:06:49.568Z,15.60
2017-08-26T04:09:17.287Z,15.60
2017-08-26T04:11:44.959Z,15.70
2017-08-26T04:14:12.603Z,15.80
2017-08-26T04:16:40.257Z,15.80
2017-08-26T04:19:07.952Z,15.80
2017-08-26T04:21:35.607Z,15.90
2017-08-26T04:24:03.347Z,15.70
2017-08-26T04:26:31.034Z,15.60
2017-08-26T04:28:58.674Z,15.70
2017-08-26T04:31:26.381Z,15.70
2017-08-26T04:33:54.130Z,15.60
2017-08-26T04:36:21.764Z,15.60
2017-08-26T04:38:49.412Z,15.60
2017-08-26T04:41:17.231Z,15.60
2017-08-26T04:43:44.894Z,15.60
2017-08-26T04:46:12.556Z,15.70
2017-08-26T04:48:40.246Z,15.70
2017-08-26T04:51:07.906Z,15.70
2017-08-26T04:53:35.590Z,15.80
2017-08-26T04:56:03.381Z,15.80
2017-08-26T04:58:31.042Z,15.80
2017-08-26T05:00:58.703Z,15.90
2017-08-26T05:03:26.553Z,16.00
2017-08-26T05:05:54.197Z,16.10
2017-08-26T05:08:21.841Z,16.00
2017-08-26T05:10:49.517Z,16.10
2017-08-26T05:13:17.277Z,16.20
2017-08-26T05:15:44.936Z,16.30
2017-08-26T05:18:12.612Z,16.40
2017-08-26T05:20:40.258Z,16.50
2017-08-26T05:23:07.892Z,16.40
2017-08-26T05:25:35.597Z,16.50
2017-08-26T05:28:03.345Z,16.40
2017-08-26T05:30:31.005Z,16.40
2017-08-26T05:32:58.689Z,16.50
2017-08-26T05:35:26.627Z,16.50
2017-08-26T05:37:54.274Z,16.50
2017-08-26T05:40:21.947Z,16.60
2017-08-26T05:42:49.595Z,16.70
2017-08-26T05:45:17.253Z,17.00
2017-08-26T05:47:44.943Z,17.10
2017-08-26T05:50:12.590Z,17.20
2017-08-26T05:52:40.244Z,17.50
2017-08-26T05:55:08.081Z,17.60
2017-08-26T05:57:35.746Z,17.80
2017-08-26T06:00:03.369Z,17.80
2017-08-26T06:02:31.033Z,17.90
2017-08-26T06:04:58.644Z,18.00
2017-08-26T06:07:26.271Z,18.00
2017-08-26T06:09:53.938Z,17.90
2017-08-26T06:12:21.564Z,17.80
2017-08-26T06:14:49.180Z,18.00
2017-08-26T06:17:16.847Z,18.00
2017-08-26T06:19:44.696Z,18.00
2017-08-26T06:22:12.307Z,18.10
2017-08-26T06:24:40.002Z,18.00
2017-08-26T06:27:07.680Z,18.00
2017-08-26T06:29:35.291Z,18.00
2017-08-26T06:32:02.940Z,18.10
2017-08-26T06:34:50.171Z,18.10
2017-08-26T06:37:17.825Z,18.10
2017-08-26T06:39:45.460Z,18.00
2017-08-26T06:42:13.118Z,18.00
2017-08-26T06:44:40.870Z,18.00
2017-08-26T06:47:08.703Z,18.00
2017-08-26T06:49:36.605Z,18.00
2017-08-26T06:52:04.281Z,18.20
2017-08-26T06:54:31.904Z,18.30
2017-08-26T06:56:59.525Z,18.40
2017-08-26T06:59:31.270Z,18.50
2017-08-26T07:01:58.880Z,18.70
2017-08-26T07:04:26.647Z,18.90
2017-08-26T07:06:54.296Z,19.00
2017-08-26T07:09:21.916Z,19.20
2017-08-26T07:11:49.532Z,19.30
2017-08-26T07:14:17.190Z,19.30
2017-08-26T07:16:47.985Z,19.50
2017-08-26T07:19:15.640Z,19.60
2017-08-26T07:21:43.444Z,19.60
2017-08-26T07:24:11.051Z,19.50
2017-08-26T07:26:38.660Z,19.60
2017-08-26T07:29:06.348Z,19.60
2017-08-26T07:31:33.955Z,19.60
2017-08-26T07:34:01.574Z,19.50
2017-08-26T07:36:29.251Z,19.50
2017-08-26T07:38:56.880Z,19.50
2017-08-26T07:41:24.519Z,19.50
2017-08-26T07:43:52.173Z,19.60
2017-08-26T07:46:19.796Z,19.70
2017-08-26T07:48:47.485Z,19.70
2017-08-26T07:51:15.125Z,19.80
2017-08-26T07:53:42.748Z,19.70
2017-08-26T07:56:10.363Z,19.80
2017-08-26T07:58:38.020Z,19.80
2017-08-26T08:01:05.643Z,19.50
2017-08-26T08:03:33.332Z,19.50
2017-08-26T08:06:00.977Z,19.50
2017-08-26T08:08:28.667Z,19.40
2017-08-26T08:10:56.289Z,19.20
2017-08-26T08:13:23.944Z,19.20
2017-08-26T08:15:51.555Z,19.10
2017-08-26T08:18:19.258Z,19.10
2017-08-26T08:20:46.903Z,18.90
2017-08-26T08:23:14.520Z,18.70
2017-08-26T08:25:42.141Z,18.70
2017-08-26T08:28:09.814Z,18.70
2017-08-26T08:30:37.580Z,18.60
2017-08-26T08:33:05.190Z,18.50
2017-08-26T08:35:32.882Z,18.70
2017-08-26T08:38:00.495Z,18.70
2017-08-26T08:40:28.205Z,18.90
2017-08-26T08:42:55.878Z,19.10
2017-08-26T08:45:23.514Z,19.30
2017-08-26T08:47:51.136Z,19.40
2017-08-26T08:50:18.780Z,19.50
2017-08-26T08:52:46.489Z,19.30
2017-08-26T08:55:14.109Z,19.10
2017-08-26T08:57:41.743Z,19.00
2017-08-26T09:00:09.387Z,18.90
2017-08-26T09:02:37.053Z,18.90
2017-08-26T09:05:04.719Z,18.70
2017-08-26T09:07:32.328Z,18.70
2017-08-26T09:09:59.956Z,18.70
2017-08-26T09:12:27.670Z,18.60
2017-08-26T09:14:55.292Z,18.70
2017-08-26T09:17:22.930Z,18.70
2017-08-26T09:19:50.606Z,18.70
2017-08-26T09:22:18.232Z,18.70
2017-08-26T09:24:45.892Z,18.80
2017-08-26T09:27:13.553Z,18.70
2017-08-26T09:29:41.177Z,18.80
2017-08-26T09:32:08.796Z,18.80
2017-08-26T09:34:36.472Z,18.80
2017-08-26T09:37:04.077Z,18.80
2017-08-26T09:39:31.695Z,18.80
2017-08-26T09:41:59.354Z,18.90
2017-08-26T09:44:28.961Z,18.90
2017-08-26T09:46:56.738Z,18.90
2017-08-26T09:49:24.401Z,19.00
2017-08-26T09:51:52.015Z,19.00
2017-08-26T09:54:19.729Z,19.00
2017-08-26T09:56:47.390Z,19.10
2017-08-26T09:59:15.018Z,19.10
2017-08-26T10:01:42.636Z,19.20
2017-08-26T10:04:10.288Z,19.10
2017-08-26T10:06:37.928Z,19.20
2017-08-26T10:09:05.540Z,19.10
2017-08-26T10:11:33.257Z,19.20
2017-08-26T10:14:00.896Z,19.30
2017-08-26T10:16:28.533Z,19.30
2017-08-26T10:18:56.192Z,19.50
2017-08-26T10:21:23.812Z,19.60
2017-08-26T10:23:51.421Z,19.90
2017-08-26T10:26:19.068Z,20.20
2017-08-26T10:28:46.697Z,20.30
2017-08-26T10:31:14.304Z,20.20
2017-08-26T10:33:41.944Z,20.40
2017-08-26T10:36:09.577Z,21.00
2017-08-26T10:38:37.281Z,21.20
2017-08-26T10:41:04.935Z,21.20
2017-08-26T10:43:32.539Z,21.60
2017-08-26T10:46:01.767Z,21.90
2017-08-26T10:48:29.407Z,22.00
2017-08-26T10:50:57.188Z,22.10
2017-08-26T10:53:24.804Z,22.40
2017-08-26T10:55:52.467Z,22.40
2017-08-26T10:58:20.088Z,22.60
2017-08-26T11:00:48.566Z,22.90
2017-08-26T11:03:16.249Z,22.70
2017-08-26T11:05:43.851Z,22.80
2017-08-26T11:08:11.482Z,23.00
2017-08-26T11:10:39.145Z,23.00
2017-08-26T11:13:06.804Z,23.10
2017-08-26T11:15:34.440Z,23.00
2017-08-26T11:18:02.119Z,23.00
2017-08-26T11:20:29.728Z,23.10
2017-08-26T11:22:57.470Z,23.10
2017-08-26T11:25:25.108Z,22.60
2017-08-26T11:27:52.729Z,22.70
2017-08-26T11:30:20.352Z,23.00
2017-08-26T11:32:48.008Z,23.00
2017-08-26T11:35:15.662Z,23.20
2017-08-26T11:37:43.296Z,23.30
2017-08-26T11:40:10.932Z,23.00
2017-08-26T11:42:38.543Z,22.90
2017-08-26T11:45:06.278Z,22.90
2017-08-26T11:47:33.933Z,22.90
2017-08-26T11:50:01.561Z,22.90
2017-08-26T11:52:29.184Z,22.80
2017-08-26T11:54:56.845Z,22.80
2017-08-26T11:57:24.473Z,22.90
2017-08-26T11:59:52.093Z,22.90
2017-08-26T12:02:19.737Z,22.90
2017-08-26T12:04:47.357Z,23.00
2017-08-26T12:07:14.975Z,23.00
2017-08-26T12:09:42.639Z,23.10
2017-08-26T12:12:10.261Z,23.20
2017-08-26T12:14:37.895Z,23.20
2017-08-26T12:17:05.849Z,23.30
2017-08-26T12:19:33.461Z,23.40
2017-08-26T12:22:01.180Z,23.50
2017-08-26T12:24:28.833Z,23.50
2017-08-26T12:26:56.630Z,23.50
2017-08-26T12:29:24.246Z,23.40
2017-08-26T12:31:51.903Z,23.40
2017-08-26T12:34:19.528Z,23.40
2017-08-26T12:36:47.167Z,23.40
2017-08-26T12:39:14.796Z,23.50
2017-08-26T12:41:42.423Z,23.50
2017-08-26T12:44:13.794Z,23.50
2017-08-26T12:46:42.966Z,23.50
2017-08-26T12:49:10.723Z,23.50
2017-08-26T12:51:38.670Z,23.70
2017-08-26T12:54:06.566Z,23.70
2017-08-26T12:56:34.174Z,23.80
2017-08-26T12:59:01.785Z,23.80
2017-08-26T13:01:29.439Z,23.90
2017-08-26T13:03:57.373Z,24.00
2017-08-26T13:06:25.455Z,24.00
2017-08-26T13:08:53.249Z,24.10
2017-08-26T13:11:20.909Z,24.40
2017-08-26T13:13:48.691Z,24.70
2017-08-26T13:16:16.370Z,24.80
2017-08-26T13:18:43.996Z,24.90
2017-08-26T13:21:11.595Z,25.10
2017-08-26T13:23:39.280Z,25.00
2017-08-26T13:26:06.989Z,25.10
2017-08-26T13:28:34.601Z,25.00
2017-08-26T13:31:02.249Z,25.10
2017-08-26T13:33:29.854Z,25.90
2017-08-26T13:35:57.849Z,26.50
2017-08-26T13:38:26.559Z,26.60
2017-08-26T13:40:54.170Z,27.10
2017-08-26T13:43:21.776Z,27.60
2017-08-26T13:45:49.433Z,27.90
2017-08-26T13:48:17.038Z,28.50
2017-08-26T13:50:44.656Z,28.40
2017-08-26T13:53:12.301Z,28.50
2017-08-26T13:55:40.822Z,28.90
2017-08-26T13:58:08.439Z,29.10
2017-08-26T14:00:36.205Z,29.40
2017-08-26T14:03:03.814Z,29.10
2017-08-26T14:05:31.428Z,29.30
2017-08-26T14:07:59.083Z,29.30
2017-08-26T14:10:26.705Z,29.20
2017-08-26T14:12:54.366Z,29.10
2017-08-26T14:15:22.000Z,29.40
2017-08-26T14:17:49.618Z,28.70
2017-08-26T14:20:17.274Z,28.00
2017-08-26T14:22:44.912Z,27.40
2017-08-26T14:25:12.585Z,26.90
2017-08-26T14:27:40.715Z,26.50
2017-08-26T14:30:08.387Z,26.20
2017-08-26T14:32:36.383Z,26.20
2017-08-26T14:35:04.015Z,25.70
2017-08-26T14:37:31.659Z,25.60
2017-08-26T14:39:59.259Z,25.60
2017-08-26T14:42:26.891Z,25.40
2017-08-26T14:44:54.553Z,25.30
2017-08-26T14:47:22.620Z,25.40
2017-08-26T14:49:50.248Z,25.40
2017-08-26T14:52:17.891Z,25.40
2017-08-26T14:54:45.524Z,25.30
2017-08-26T14:57:13.220Z,25.20
2017-08-26T14:59:40.856Z,24.90
2017-08-26T15:02:08.464Z,25.00
2017-08-26T15:04:36.195Z,25.00
2017-08-26T15:07:03.834Z,24.80
2017-08-26T15:09:31.441Z,24.80
2017-08-26T15:11:59.097Z,24.80
2017-08-26T15:14:26.765Z,24.70
2017-08-26T15:16:54.457Z,24.70
2017-08-26T15:19:22.063Z,24.70
2017-08-26T15:21:49.725Z,24.90
2017-08-26T15:24:17.328Z,24.90
2017-08-26T15:26:44.962Z,24.90
2017-08-26T15:29:12.617Z,24.70
2017-08-26T15:31:40.236Z,24.50
2017-08-26T15:34:07.870Z,24.40
2017-08-26T15:36:35.649Z,24.40
2017-08-26T15:39:03.276Z,24.40
2017-08-26T15:41:30.882Z,24.50
2017-08-26T15:43:58.539Z,24.50
2017-08-26T15:46:26.264Z,24.50
2017-08-26T15:48:53.882Z,24.50
2017-08-26T15:51:21.538Z,24.40
2017-08-26T15:53:49.151Z,24.30
2017-08-26T15:56:16.803Z,24.30
2017-08-26T15:58:44.439Z,24.20
2017-08-26T16:01:12.056Z,24.30
2017-08-26T16:03:39.665Z,24.20
2017-08-26T16:06:07.297Z,24.20
2017-08-26T16:08:34.925Z,24.20
2017-08-26T16:11:02.542Z,24.10
2017-08-26T16:13:30.190Z,24.10
2017-08-26T16:15:57.813Z,24.10
2017-08-26T16:18:25.434Z,24.00
2017-08-26T16:20:53.118Z,24.00
2017-08-26T16:23:20.745Z,24.10
2017-08-26T16:25:48.354Z,24.10
2017-08-26T16:28:16.045Z,24.10
2017-08-26T16:30:43.657Z,24.00
2017-08-26T16:33:11.315Z,23.90
2017-08-26T16:35:38.959Z,23.90
2017-08-26T16:38:06.740Z,23.80
2017-08-26T16:40:34.367Z,23.80
2017-08-26T16:43:02.029Z,23.70
2017-08-26T16:45:29.649Z,23.60
2017-08-26T16:47:57.258Z,23.70
2017-08-26T16:50:24.905Z,23.70
2017-08-26T16:52:52.515Z,23.60
2017-08-26T16:55:20.138Z,23.60
2017-08-26T16:57:47.789Z,23.50
2017-08-26T17:00:15.450Z,23.50
2017-08-26T17:02:43.105Z,23.50
2017-08-26T17:05:10.745Z,23.50
2017-08-26T17:07:38.372Z,23.30
2017-08-26T17:10:06.007Z,23.20
2017-08-26T17:12:33.951Z,23.20
2017-08-26T17:15:01.701Z,23.20
2017-08-26T17:17:29.323Z,23.20
2017-08-26T17:19:56.968Z,23.10
2017-08-26T17:22:24.572Z,23.00
2017-08-26T17:24:52.184Z,23.00
2017-08-26T17:27:19.832Z,23.00
2017-08-26T17:29:47.665Z,22.90
2017-08-26T17:32:15.272Z,22.90
2017-08-26T17:34:42.948Z,23.00
2017-08-26T17:37:10.597Z,22.90
2017-08-26T17:39:38.233Z,22.80
2017-08-26T17:42:05.902Z,22.80
2017-08-26T17:44:33.522Z,22.70
2017-08-26T17:47:02.503Z,22.70
2017-08-26T17:49:30.163Z,22.70
2017-08-26T17:51:59.247Z,22.70
2017-08-26T17:54:26.900Z,22.70
2017-08-26T17:56:54.766Z,22.60
2017-08-26T17:59:22.397Z,22.60
2017-08-26T18:01:50.015Z,22.60
2017-08-26T18:04:17.785Z,22.60
2017-08-26T18:06:45.417Z,22.60
2017-08-26T18:09:13.126Z,22.50
2017-08-26T18:11:40.823Z,22.50
2017-08-26T18:14:08.527Z,22.40
2017-08-26T18:16:36.194Z,22.40
2017-08-26T18:19:03.913Z,22.40
2017-08-26T18:21:31.544Z,22.40
2017-08-26T18:23:59.244Z,22.40
2017-08-26T18:26:27.059Z,22.30
2017-08-26T18:28:54.719Z,22.30
2017-08-26T18:31:22.445Z,22.30
2017-08-26T18:33:50.142Z,22.20
2017-08-26T18:36:17.895Z,22.10
2017-08-26T18:38:45.677Z,22.10
2017-08-26T18:41:13.366Z,22.10
2017-08-26T18:43:40.976Z,22.10
2017-08-26T18:46:08.593Z,22.10
2017-08-26T18:48:36.281Z,22.00
2017-08-26T18:51:03.918Z,22.00
2017-08-26T18:53:31.540Z,21.90
2017-08-26T18:55:59.183Z,21.90
2017-08-26T18:58:26.829Z,21.90
2017-08-26T19:00:54.477Z,21.80
2017-08-26T19:03:22.115Z,21.70
2017-08-26T19:05:49.733Z,21.70
2017-08-26T19:08:17.420Z,21.70
2017-08-26T19:10:45.064Z,21.60
2017-08-26T19:13:21.713Z,21.50
2017-08-26T19:15:49.385Z,21.50
2017-08-26T19:18:16.995Z,21.50
2017-08-26T19:20:44.621Z,21.40
2017-08-26T19:23:12.267Z,21.30
2017-08-26T19:25:39.886Z,21.40
2017-08-26T19:28:07.594Z,21.40
2017-08-26T19:30:35.248Z,21.30
2017-08-26T19:33:02.884Z,21.30
2017-08-26T19:35:30.525Z,21.20
2017-08-26T19:37:58.176Z,21.20
2017-08-26T19:40:25.804Z,21.10
2017-08-26T19:42:53.421Z,21.10
2017-08-26T19:45:21.095Z,21.00
2017-08-26T19:47:48.708Z,21.00
2017-08-26T19:50:16.513Z,21.00
2017-08-26T19:52:44.176Z,20.90
2017-08-26T19:55:11.793Z,20.90
2017-08-26T19:57:39.425Z,21.00
2017-08-26T20:00:07.081Z,20.90
2017-08-26T20:02:34.720Z,21.00
2017-08-26T20:05:02.336Z,21.00
2017-08-26T20:07:30.015Z,21.00
2017-08-26T20:09:57.661Z,21.00
2017-08-26T20:12:25.319Z,21.00
2017-08-26T20:14:53.025Z,21.10
2017-08-26T20:17:20.656Z,21.10
2017-08-26T20:19:48.268Z,21.20
2017-08-26T20:22:15.949Z,21.20
2017-08-26T20:24:43.593Z,21.10
2017-08-26T20:27:11.405Z,21.10
2017-08-26T20:29:39.069Z,21.10
2017-08-26T20:32:06.723Z,21.10
2017-08-26T20:34:34.341Z,21.10
2017-08-26T20:37:02.021Z,21.10
2017-08-26T20:39:29.658Z,21.00
2017-08-26T20:41:57.281Z,21.00
2017-08-26T20:44:24.965Z,20.90
2017-08-26T20:46:52.579Z,20.90
2017-08-26T20:49:20.191Z,20.60
2017-08-26T20:51:47.842Z,20.30
2017-08-26T20:54:15.462Z,20.10
2017-08-26T20:56:43.461Z,20.10
2017-08-26T20:59:11.117Z,20.10
2017-08-26T21:01:38.733Z,20.10
2017-08-26T21:04:06.343Z,20.00
2017-08-26T21:06:34.008Z,19.90
2017-08-26T21:09:01.640Z,19.90
2017-08-26T21:11:29.256Z,19.90
2017-08-26T21:13:56.901Z,19.80
2017-08-26T21:16:24.547Z,19.90
2017-08-26T21:18:52.173Z,19.90
2017-08-26T21:21:19.825Z,19.80
2017-08-26T21:23:47.449Z,19.90
2017-08-26T21:26:15.084Z,19.90
2017-08-26T21:28:42.725Z,19.90
2017-08-26T21:31:10.341Z,19.90
2017-08-26T21:33:37.962Z,19.90
2017-08-26T21:36:05.634Z,19.90
2017-08-26T21:38:33.256Z,19.90
2017-08-26T21:41:00.876Z,19.90
2017-08-26T21:43:28.520Z,19.80
2017-08-26T21:45:56.196Z,19.70
2017-08-26T21:48:23.852Z,19.70
2017-08-26T21:53:30.041Z,19.60
2017-08-26T21:55:57.726Z,19.60
2017-08-26T21:58:25.332Z,19.60
2017-08-26T22:00:52.986Z,19.50
2017-08-26T22:03:20.703Z,19.40
2017-08-26T22:05:48.321Z,19.40
2017-08-26T22:08:16.081Z,19.40
2017-08-26T22:10:43.690Z,19.30
2017-08-26T22:13:11.313Z,19.30
2017-08-26T22:15:38.954Z,19.20
2017-08-26T22:18:06.568Z,19.20
2017-08-26T22:20:34.222Z,19.10
2017-08-26T22:23:01.873Z,19.10
2017-08-26T22:25:29.486Z,19.10
2017-08-26T22:27:57.135Z,19.00
2017-08-26T22:30:24.772Z,19.00
2017-08-26T22:32:52.379Z,19.00
2017-08-26T22:35:20.002Z,19.00
2017-08-26T22:37:47.639Z,18.90
2017-08-26T22:40:15.244Z,19.00
2017-08-26T22:42:42.873Z,19.00
2017-08-26T22:45:10.516Z,18.90
2017-08-26T22:47:38.144Z,18.80
2017-08-26T22:50:05.753Z,18.80
2017-08-26T22:52:33.397Z,18.80
2017-08-26T22:55:01.013Z,18.80
2017-08-26T22:57:28.625Z,18.80
2017-08-26T22:59:56.305Z,18.70
2017-08-26T23:02:23.920Z,18.70
2017-08-26T23:04:51.528Z,18.60
2017-08-26T23:07:19.181Z,18.60
2017-08-26T23:09:46.810Z,18.60
2017-08-26T23:12:14.421Z,18.60
2017-08-26T23:14:42.058Z,18.50
2017-08-26T23:17:09.687Z,18.50
2017-08-26T23:19:37.309Z,18.50
2017-08-26T23:22:04.952Z,18.50
2017-08-26T23:24:32.632Z,18.50
2017-08-26T23:27:00.240Z,18.40
2017-08-26T23:29:27.883Z,18.40
2017-08-26T23:31:55.510Z,18.40
2017-08-26T23:34:23.128Z,18.40
2017-08-26T23:36:50.785Z,18.40
2017-08-26T23:39:18.392Z,18.40
2017-08-26T23:41:46.033Z,18.40
2017-08-26T23:44:13.677Z,18.30
2017-08-26T23:46:41.298Z,18.30
2017-08-26T23:49:08.917Z,18.20
2017-08-26T23:51:36.617Z,18.20
2017-08-26T23:54:04.227Z,18.20
2017-08-26T23:56:31.840Z,18.20
2017-08-26T23:58:59.492Z,18.20
